Decoded Metar for DTTB (BIZERTE in TUNISIA) (IATA:N/A) | Meteo·Mobile Aviation Weather
aviador You're here:

DTTB Decoded Metar

BIZERTE in TUNISIA
Report Time2019-01-19 05:00:00
UTC Time2019-01-19 05:54:36
Flight Rules vfr VFR
WindCalm
Visibility8000 m
Phenomena:N/A
Clouds:Scattered 020 Hf
Expected CloudBase > 400 ft AGL from Temp-Dew spread
CeilingNone
Temp07°C (ISA -8)
Dew Point06°C (93% RH)
AAT6.1°C
QNH1015 hPa
Density Alt-892 ft
Elevation10 ft
Report Wrong Elevation
Raw Report
DTTB 190500Z 00000KT 8000 SCT020 07/06 Q1015=

Extra information for DTTB:More info

Metar Taf Metar & Taf Last 4 Metars F.Rules Stats Wind Profile Meteogram Temp Stats Airport Information Weather charts Add Link Nearby VenuesMetar ALERT Operation Metar Decoded Social comments